Time;durP1;ratioP1;P1;durP2;ratioP2;P2;SDS_P1;SDS_P2;PMS_P1;PMS_P2;Temp;Humidity;BMP_temperature;BMP_pressure;BME280_temperature;BME280_humidity;BME280_pressure;Samples;Min_cycle;Max_cycle;Signal;HPM_P1;HPM_P2
2020/12/25 00:01:31;;;;;;;13.63;7.00;;;282.20;2022.40;;;;;;5118511;28;20080;-66
2020/12/25 00:03:58;;;;;;;12.95;6.53;;;282.30;1996.80;;;;;;5118239;28;20035;-65
2020/12/25 00:06:32;;;;;;;15.60;6.60;;;282.30;1996.80;;;;;;5118374;28;20020;-65
2020/12/25 00:08:57;;;;;;;10.50;5.75;;;282.40;1996.80;;;;;;5118165;28;20024;-66
2020/12/25 00:11:36;;;;;;;11.05;5.57;;;282.50;1996.80;;;;;;5118261;28;20024;-66
2020/12/25 00:14:03;;;;;;;10.13;4.43;;;282.50;1996.80;;;;;;5118562;28;20067;-66
2020/12/25 00:16:29;;;;;;;8.75;5.25;;;307.20;1996.80;;;;;;5118164;28;20023;-65
2020/12/25 00:18:55;;;;;;;8.05;4.70;;;307.30;1996.80;;;;;;5118498;28;20032;-66
2020/12/25 00:21:22;;;;;;;9.65;4.90;;;307.30;1971.20;;;;;;5118116;28;20038;-65
2020/12/25 00:23:48;;;;;;;8.93;4.70;;;307.40;1971.20;;;;;;5118197;28;20027;-66
2020/12/25 00:26:28;;;;;;;9.52;3.67;;;307.40;1971.20;;;;;;5118057;27;20024;-66
2020/12/25 00:28:58;;;;;;;7.47;4.53;;;307.50;1945.60;;;;;;5118419;28;20020;-66
2020/12/25 00:31:31;;;;;;;6.93;3.83;;;307.50;1945.60;;;;;;5118156;28;20028;-66
2020/12/25 00:34:01;;;;;;;12.98;8.20;;;307.50;1945.60;;;;;;5117959;28;20024;-66
2020/12/25 00:36:32;;;;;;;14.30;8.63;;;307.40;1945.60;;;;;;5117661;28;20028;-66
2020/12/25 00:39:00;;;;;;;17.02;7.15;;;307.40;1945.60;;;;;;5118111;28;20110;-66
2020/12/25 00:41:26;;;;;;;13.68;7.50;;;307.20;1971.20;;;;;;5118167;28;20433;-66
2020/12/25 00:43:53;;;;;;;15.18;7.68;;;307.20;1971.20;;;;;;5116965;28;20039;-65
2020/12/25 00:46:20;;;;;;;9.82;6.32;;;282.40;1971.20;;;;;;5117807;28;20016;-66
2020/12/25 00:48:45;;;;;;;13.20;7.13;;;282.50;1971.20;;;;;;5117497;28;20482;-66
2020/12/25 00:51:19;;;;;;;10.13;7.05;;;282.50;1996.80;;;;;;5117188;28;20024;-66
2020/12/25 00:53:46;;;;;;;11.18;6.93;;;282.40;1971.20;;;;;;5117475;28;20049;-66
2020/12/25 00:56:13;;;;;;;12.45;6.68;;;282.40;1996.80;;;;;;5117734;28;20110;-65
2020/12/25 00:58:40;;;;;;;11.88;6.53;;;282.40;1996.80;;;;;;5117135;28;20031;-65
2020/12/25 01:01:06;;;;;;;10.05;6.32;;;282.30;1996.80;;;;;;5117657;28;20020;-66
2020/12/25 01:03:33;;;;;;;12.55;7.80;;;282.10;1996.80;;;;;;5117946;28;20023;-66
2020/12/25 01:05:59;;;;;;;11.10;6.28;;;282.10;1996.80;;;;;;5117089;28;20448;-66
2020/12/25 01:08:25;;;;;;;9.88;6.10;;;282.10;2022.40;;;;;;5117346;28;20027;-64
2020/12/25 01:10:51;;;;;;;11.38;7.05;;;282.10;2022.40;;;;;;5117549;28;20026;-67
2020/12/25 01:13:17;;;;;;;10.13;6.28;;;282.10;2022.40;;;;;;5117244;28;20027;-66
2020/12/25 01:15:43;;;;;;;11.95;6.40;;;282.00;2022.40;;;;;;5117586;28;20020;-66
2020/12/25 01:18:09;;;;;;;11.60;6.75;;;281.90;2022.40;;;;;;5117836;28;20106;-66
2020/12/25 01:20:36;;;;;;;12.07;6.93;;;282.00;1996.80;;;;;;5117248;28;20034;-65
2020/12/25 01:23:05;;;;;;;12.85;7.20;;;281.90;2022.40;;;;;;5117778;28;20106;-65
2020/12/25 01:25:31;;;;;;;11.07;7.07;;;282.00;2022.40;;;;;;5117491;28;20023;-66
2020/12/25 01:27:56;;;;;;;10.40;6.03;;;281.80;2022.40;;;;;;5117481;28;20413;-66
2020/12/25 01:30:23;;;;;;;13.00;6.95;;;281.90;2022.40;;;;;;5117384;28;20024;-66
2020/12/25 01:32:48;;;;;;;9.57;6.40;;;282.00;2022.40;;;;;;5116699;28;20048;-65
2020/12/25 01:35:14;;;;;;;13.23;6.65;;;281.90;2022.40;;;;;;5117010;28;20028;-65
2020/12/25 01:37:40;;;;;;;13.25;6.70;;;282.00;2022.40;;;;;;5117405;28;20095;-65
2020/12/25 01:40:06;;;;;;;13.35;6.15;;;281.90;2022.40;;;;;;5116782;28;20020;-66
2020/12/25 01:42:34;;;;;;;12.82;7.13;;;282.00;2022.40;;;;;;5117552;28;20024;-65
2020/12/25 01:45:01;;;;;;;15.57;8.60;;;281.80;2048.00;;;;;;5117641;28;20024;-64
2020/12/25 01:47:27;;;;;;;11.45;7.70;;;281.60;2048.00;;;;;;5117114;28;20248;-65
2020/12/25 01:49:54;;;;;;;11.25;7.43;;;281.60;2048.00;;;;;;5120805;28;20106;-67
2020/12/25 01:52:20;;;;;;;15.75;7.68;;;281.60;2073.60;;;;;;5121062;28;20024;-65
2020/12/25 01:54:47;;;;;;;13.30;7.57;;;281.60;2073.60;;;;;;5120670;28;20093;-65
2020/12/25 01:57:14;;;;;;;10.40;6.63;;;281.80;2048.00;;;;;;5121190;28;20392;-66
2020/12/25 01:59:41;;;;;;;16.35;7.10;;;281.90;2048.00;;;;;;5120918;28;20073;-66
2020/12/25 02:02:09;;;;;;;12.55;6.95;;;281.80;2048.00;;;;;;5120570;28;20031;-67
2020/12/25 02:04:35;;;;;;;17.52;7.05;;;281.70;2048.00;;;;;;5120553;28;20204;-65
2020/12/25 02:07:01;;;;;;;10.20;6.60;;;281.80;2048.00;;;;;;5121085;28;20023;-66
2020/12/25 02:09:26;;;;;;;12.93;7.07;;;281.80;2048.00;;;;;;5120772;28;20031;-65
2020/12/25 02:11:53;;;;;;;10.38;6.15;;;281.90;2048.00;;;;;;5120386;28;20023;-67
2020/12/25 02:14:20;;;;;;;13.32;6.57;;;282.00;2048.00;;;;;;5120283;28;20336;-65
2020/12/25 02:16:46;;;;;;;11.52;6.03;;;282.10;2022.40;;;;;;5120280;28;20019;-66
2020/12/25 02:19:12;;;;;;;9.32;6.10;;;282.10;2022.40;;;;;;5120575;28;20047;-66
2020/12/25 02:21:38;;;;;;;9.95;6.13;;;282.20;1996.80;;;;;;5120219;28;20016;-65
2020/12/25 02:24:04;;;;;;;11.75;5.75;;;282.20;1996.80;;;;;;5120144;28;20028;-65
2020/12/25 02:26:30;;;;;;;9.43;5.47;;;282.30;1996.80;;;;;;5120093;28;20019;-66
2020/12/25 02:28:56;;;;;;;9.70;5.18;;;282.40;1996.80;;;;;;5120111;28;20028;-66
2020/12/25 02:31:23;;;;;;;10.05;5.03;;;282.40;1996.80;;;;;;5120420;27;20022;-65
2020/12/25 02:33:49;;;;;;;10.18;5.72;;;282.40;1996.80;;;;;;5120203;28;20118;-67
2020/12/25 02:36:15;;;;;;;9.80;3.60;;;282.40;1996.80;;;;;;5119932;28;20096;-66
2020/12/25 02:38:41;;;;;;;10.70;4.63;;;282.40;1996.80;;;;;;5120166;28;20465;-66
2020/12/25 02:41:06;;;;;;;7.93;4.32;;;282.50;1971.20;;;;;;5120405;28;20028;-67
2020/12/25 02:43:32;;;;;;;10.07;4.03;;;282.50;1996.80;;;;;;5119714;28;20167;-66
2020/12/25 02:45:58;;;;;;;7.15;3.28;;;282.50;1996.80;;;;;;5120040;28;20110;-66
2020/12/25 02:48:24;;;;;;;6.25;3.38;;;307.20;1996.80;;;;;;5119993;28;20443;-66
2020/12/25 02:50:49;;;;;;;6.75;4.25;;;307.30;1996.80;;;;;;5119910;28;20024;-65
2020/12/25 02:53:15;;;;;;;5.13;3.17;;;307.30;1996.80;;;;;;5119564;28;20107;-66
2020/12/25 02:55:41;;;;;;;4.95;2.78;;;307.30;2022.40;;;;;;5119742;28;20031;-65
2020/12/25 02:58:07;;;;;;;5.60;3.35;;;307.40;1996.80;;;;;;5119761;28;20305;-65
2020/12/25 03:00:32;;;;;;;5.65;2.60;;;307.40;1996.80;;;;;;5119450;28;20023;-65
2020/12/25 03:02:58;;;;;;;5.10;2.88;;;307.40;2022.40;;;;;;5119435;28;20429;-65
2020/12/25 03:05:24;;;;;;;4.07;2.70;;;307.40;2022.40;;;;;;5119330;28;20341;-66
2020/12/25 03:07:50;;;;;;;7.63;3.13;;;307.40;2022.40;;;;;;5119573;28;20024;-66
2020/12/25 03:10:15;;;;;;;4.25;2.70;;;307.50;1996.80;;;;;;5119545;28;20031;-66
2020/12/25 03:12:41;;;;;;;6.45;3.15;;;307.50;1996.80;;;;;;5118959;28;20076;-66
2020/12/25 03:15:07;;;;;;;6.28;2.80;;;307.50;1996.80;;;;;;5119086;28;20424;-65
2020/12/25 03:17:33;;;;;;;4.78;2.80;;;307.50;1996.80;;;;;;5119330;28;20049;-66
2020/12/25 03:19:58;;;;;;;4.97;2.80;;;307.50;1996.80;;;;;;5119454;28;20062;-67
2020/12/25 03:22:24;;;;;;;4.50;2.58;;;307.50;1996.80;;;;;;5119582;28;20026;-65
2020/12/25 03:24:50;;;;;;;5.43;2.92;;;307.40;2022.40;;;;;;5118724;28;20034;-65
2020/12/25 03:27:16;;;;;;;4.38;2.85;;;307.40;2022.40;;;;;;5118923;28;20028;-66
2020/12/25 03:29:41;;;;;;;5.30;3.08;;;307.50;2022.40;;;;;;5119223;28;20030;-65
2020/12/25 03:32:07;;;;;;;5.07;2.67;;;307.40;1996.80;;;;;;5118656;28;20050;-65
2020/12/25 03:34:33;;;;;;;4.43;2.60;;;307.40;2022.40;;;;;;5118743;28;20042;-65
2020/12/25 03:36:59;;;;;;;4.63;2.50;;;307.50;2022.40;;;;;;5118769;28;20417;-65
2020/12/25 03:39:24;;;;;;;5.13;2.38;;;307.50;1996.80;;;;;;5119000;28;20126;-66
2020/12/25 03:41:52;;;;;;;5.75;3.17;;;307.50;2022.40;;;;;;5119212;28;20047;-66
2020/12/25 03:44:19;;;;;;;6.20;3.00;;;307.50;2022.40;;;;;;5118859;28;20029;-66
2020/12/25 03:46:44;;;;;;;7.05;3.00;;;307.40;2022.40;;;;;;5118847;28;20098;-66
2020/12/25 03:49:10;;;;;;;4.85;2.85;;;307.50;1996.80;;;;;;5118806;28;20078;-65
2020/12/25 03:51:36;;;;;;;6.90;2.40;;;307.40;2022.40;;;;;;5119017;28;20028;-66
2020/12/25 03:54:02;;;;;;;5.07;3.17;;;307.40;2022.40;;;;;;5118369;28;20030;-65
2020/12/25 03:56:28;;;;;;;7.03;2.95;;;307.40;2022.40;;;;;;5118649;28;20027;-65
2020/12/25 03:58:54;;;;;;;5.70;2.70;;;307.40;1996.80;;;;;;5118930;28;20022;-65
2020/12/25 04:01:20;;;;;;;4.78;2.58;;;307.50;1996.80;;;;;;5118536;28;20028;-66
2020/12/25 04:03:46;;;;;;;6.32;2.50;;;307.40;2022.40;;;;;;5118836;28;20027;-65
2020/12/25 04:06:12;;;;;;;4.28;2.70;;;307.40;2022.40;;;;;;5118164;28;20477;-66
2020/12/25 04:08:38;;;;;;;5.88;3.47;;;307.40;1996.80;;;;;;5118462;28;20016;-66
2020/12/25 04:11:05;;;;;;;4.90;3.08;;;307.40;1996.80;;;;;;5117514;28;20103;-65
2020/12/25 04:13:32;;;;;;;7.35;3.22;;;307.40;1996.80;;;;;;5118479;28;20026;-66
2020/12/25 04:16:01;;;;;;;6.03;3.25;;;307.30;2022.40;;;;;;5118102;28;20286;-66
2020/12/25 04:18:28;;;;;;;6.63;3.38;;;307.40;2022.40;;;;;;5118034;28;20356;-66
2020/12/25 04:20:56;;;;;;;5.15;3.05;;;307.30;2022.40;;;;;;5117673;28;20030;-65
2020/12/25 04:23:22;;;;;;;12.32;3.42;;;307.20;2022.40;;;;;;5118249;28;20026;-65
2020/12/25 04:25:47;;;;;;;6.28;3.38;;;307.30;2022.40;;;;;;5118400;28;20098;-66
2020/12/25 04:28:13;;;;;;;5.25;3.25;;;307.40;1996.80;;;;;;5117550;28;20034;-65
2020/12/25 04:30:39;;;;;;;6.00;3.22;;;307.40;1996.80;;;;;;5118334;28;20373;-66
2020/12/25 04:33:04;;;;;;;7.05;3.55;;;307.40;1996.80;;;;;;5118287;28;20059;-66
2020/12/25 04:35:30;;;;;;;7.07;3.22;;;307.30;1996.80;;;;;;5117605;28;20118;-65
2020/12/25 04:37:56;;;;;;;7.88;3.63;;;307.40;1996.80;;;;;;5117378;28;20031;-66
2020/12/25 04:40:22;;;;;;;11.25;3.53;;;307.40;1996.80;;;;;;5118230;28;20074;-64
2020/12/25 04:42:53;;;;;;;5.47;3.13;;;307.40;1996.80;;;;;;5117891;28;20024;-65
2020/12/25 04:45:20;;;;;;;5.72;2.63;;;307.40;1996.80;;;;;;5117867;28;20085;-65
2020/12/25 04:47:46;;;;;;;6.45;2.83;;;307.50;1996.80;;;;;;5117810;28;20024;-66
2020/12/25 04:50:12;;;;;;;20.38;11.32;;;307.50;1996.80;;;;;;5117820;28;20020;-66
2020/12/25 04:52:39;;;;;;;17.20;10.55;;;307.40;2022.40;;;;;;5118004;28;20042;-66
2020/12/25 04:55:06;;;;;;;16.65;12.32;;;307.40;1996.80;;;;;;5117714;28;20036;-66
2020/12/25 04:57:32;;;;;;;15.27;9.10;;;307.50;1996.80;;;;;;5117449;28;20031;-67
2020/12/25 04:59:58;;;;;;;8.57;5.20;;;307.50;1996.80;;;;;;5117994;28;20053;-66
2020/12/25 05:02:24;;;;;;;6.32;3.28;;;307.50;1996.80;;;;;;5117698;28;20020;-65
2020/12/25 05:04:49;;;;;;;7.47;4.07;;;307.40;1996.80;;;;;;5116880;28;20456;-65
2020/12/25 05:07:17;;;;;;;7.45;3.28;;;307.40;1996.80;;;;;;5117922;28;20118;-65
2020/12/25 05:09:44;;;;;;;6.65;3.92;;;307.30;1996.80;;;;;;5116986;28;20024;-66
2020/12/25 05:12:12;;;;;;;6.10;3.97;;;307.30;1996.80;;;;;;5117880;28;20110;-67
2020/12/25 05:14:42;;;;;;;5.43;3.33;;;307.40;1996.80;;;;;;5117508;28;20039;-65
2020/12/25 05:17:11;;;;;;;7.03;3.30;;;307.40;1996.80;;;;;;5117303;28;20057;-65
2020/12/25 05:19:40;;;;;;;;;;;307.30;1996.80;;;;;;5118332;28;20068;-66
2020/12/25 05:22:06;;;;;;;18.75;10.88;;;307.30;1996.80;;;;;;5117729;28;19914;-66
2020/12/25 05:24:39;;;;;;;11.23;5.88;;;307.20;1996.80;;;;;;5121665;28;20035;-65
2020/12/25 05:27:14;;;;;;;10.20;5.20;;;307.20;1996.80;;;;;;5121851;28;20107;-65
2020/12/25 05:29:41;;;;;;;7.47;4.07;;;307.20;1996.80;;;;;;5121559;28;20477;-65
2020/12/25 05:32:07;;;;;;;7.72;4.40;;;307.20;1996.80;;;;;;5121183;28;20054;-66
2020/12/25 05:34:34;;;;;;;7.40;3.72;;;307.20;1996.80;;;;;;5120803;28;20031;-66
2020/12/25 05:37:02;;;;;;;9.10;5.22;;;307.30;1996.80;;;;;;5121692;28;20054;-65
2020/12/25 05:39:36;;;;;;;51.10;34.42;;;307.20;1996.80;;;;;;5121047;28;20027;-66
2020/12/25 05:42:07;;;;;;;28.63;20.73;;;307.20;1996.80;;;;;;5122063;28;20026;-66
2020/12/25 05:44:40;;;;;;;25.83;16.42;;;307.30;1996.80;;;;;;5121419;28;20110;-65
2020/12/25 05:47:07;;;;;;;14.88;7.50;;;307.30;1996.80;;;;;;5121166;28;20023;-66
2020/12/25 05:49:34;;;;;;;17.05;8.32;;;307.30;1971.20;;;;;;5120843;28;20035;-66
2020/12/25 05:51:59;;;;;;;16.70;9.63;;;307.40;1971.20;;;;;;5121051;28;20019;-66
2020/12/25 05:54:27;;;;;;;43.20;30.60;;;307.40;1971.20;;;;;;5120654;28;20433;-65
2020/12/25 05:56:58;;;;;;;31.20;19.42;;;307.40;1971.20;;;;;;5120974;28;20080;-66
2020/12/25 05:59:28;;;;;;;24.70;11.68;;;307.50;1971.20;;;;;;5120413;28;20062;-66
2020/12/25 06:02:00;;;;;;;20.92;8.70;;;307.50;1971.20;;;;;;5120595;28;20413;-65
2020/12/25 06:04:27;;;;;;;19.40;9.65;;;307.60;1971.20;;;;;;5120930;28;20031;-66
2020/12/25 06:06:54;;;;;;;24.48;9.90;;;307.60;1945.60;;;;;;5120826;28;20046;-65
2020/12/25 06:09:28;;;;;;;90.88;48.45;;;307.70;1945.60;;;;;;5120751;28;20035;-66
2020/12/25 06:11:54;;;;;;;86.00;41.92;;;307.60;1945.60;;;;;;5120478;28;20020;-66
2020/12/25 06:14:20;;;;;;;66.07;26.17;;;307.40;1945.60;;;;;;5120291;28;20030;-65
2020/12/25 06:17:07;;;;;;;29.60;6.45;;;307.40;1971.20;;;;;;5120876;28;20031;-67
2020/12/25 06:19:53;;;;;;;27.17;12.32;;;307.50;1971.20;;;;;;5120701;28;20106;-65
2020/12/25 06:22:22;;;;;;;12.48;5.35;;;307.60;1971.20;;;;;;5120823;28;20402;-67
2020/12/25 06:24:51;;;;;;;9.90;5.03;;;307.50;1945.60;;;;;;5120441;28;20101;-66
2020/12/25 06:27:17;;;;;;;10.43;5.28;;;307.50;1971.20;;;;;;5120095;28;20046;-65
2020/12/25 06:29:44;;;;;;;39.63;17.52;;;307.50;1971.20;;;;;;5120068;28;20413;-66
2020/12/25 06:32:13;;;;;;;8.75;4.80;;;307.40;1971.20;;;;;;5120059;28;20056;-65
2020/12/25 06:34:46;;;;;;;10.02;4.68;;;307.50;1971.20;;;;;;5119206;28;20031;-65
2020/12/25 06:37:14;;;;;;;32.13;19.33;;;307.60;1945.60;;;;;;5120562;28;20336;-65
2020/12/25 06:40:06;;;;;;;27.85;16.00;;;307.60;1945.60;;;;;;5119908;28;20314;-65
2020/12/25 06:42:35;;;;;;;33.17;21.02;;;307.70;1945.60;;;;;;5116465;28;20397;-66
2020/12/25 06:45:03;;;;;;;43.90;22.85;;;307.70;1945.60;;;;;;5120101;28;20023;-66
2020/12/25 06:47:49;;;;;;;257.08;142.68;;;307.60;1945.60;;;;;;5120275;28;20027;-66
2020/12/25 06:50:16;;;;;;;78.45;45.03;;;307.70;1945.60;;;;;;5119752;27;20061;-65
2020/12/25 06:52:56;;;;;;;89.55;50.67;;;307.80;1945.60;;;;;;5119951;28;20020;-66
2020/12/25 06:55:38;;;;;;;53.35;29.77;;;307.60;1971.20;;;;;;5119490;28;20040;-65
2020/12/25 06:58:06;;;;;;;56.80;34.45;;;307.70;1971.20;;;;;;5120138;28;20030;-65
2020/12/25 07:00:32;;;;;;;98.57;51.72;;;307.70;1971.20;;;;;;5119819;28;20102;-65
2020/12/25 07:03:13;;;;;;;106.28;54.83;;;307.80;1920.00;;;;;;5119472;28;20051;-67
2020/12/25 07:05:48;;;;;;;24.75;13.02;;;307.80;1920.00;;;;;;5119678;28;20028;-66
2020/12/25 07:08:38;;;;;;;17.30;7.72;;;307.90;1920.00;;;;;;5118436;28;20293;-67
2020/12/25 07:11:09;;;;;;;20.15;4.65;;;308.00;1920.00;;;;;;5119897;28;20024;-65
2020/12/25 07:13:36;;;;;;;9.63;4.47;;;308.00;1894.40;;;;;;5119503;28;20030;-65
2020/12/25 07:16:03;;;;;;;5.88;3.45;;;308.00;1894.40;;;;;;5119482;28;20020;-66
2020/12/25 07:18:30;;;;;;;15.48;4.30;;;308.00;1920.00;;;;;;5119465;27;20016;-65
2020/12/25 07:20:57;;;;;;;6.00;3.47;;;308.00;1945.60;;;;;;5119306;28;20050;-65
2020/12/25 07:23:23;;;;;;;8.00;4.15;;;308.00;1920.00;;;;;;5119109;28;20027;-65
2020/12/25 07:25:49;;;;;;;8.57;4.65;;;307.70;1996.80;;;;;;5118951;28;20494;-65
2020/12/25 07:28:15;;;;;;;8.82;5.30;;;307.60;1996.80;;;;;;5119222;28;20310;-65
2020/12/25 07:30:41;;;;;;;9.18;5.15;;;307.40;2022.40;;;;;;5118588;28;20322;-67
2020/12/25 07:33:07;;;;;;;13.35;7.95;;;307.20;2073.60;;;;;;5119065;27;20043;-67
2020/12/25 07:35:33;;;;;;;13.93;7.63;;;282.30;2073.60;;;;;;5118975;28;20092;-66
2020/12/25 07:37:59;;;;;;;13.75;8.50;;;282.10;2073.60;;;;;;5119075;28;20024;-66
2020/12/25 07:40:25;;;;;;;16.08;8.98;;;282.10;2073.60;;;;;;5119289;28;20028;-66
2020/12/25 07:42:51;;;;;;;14.45;8.95;;;282.00;2099.20;;;;;;5118941;28;20026;-66
2020/12/25 07:45:17;;;;;;;17.15;9.82;;;282.00;2124.80;;;;;;5118472;28;20053;-67
2020/12/25 07:47:43;;;;;;;15.93;9.93;;;282.00;2099.20;;;;;;5119113;28;20048;-66
2020/12/25 07:50:09;;;;;;;17.95;11.75;;;281.90;2124.80;;;;;;5119061;28;20062;-66
2020/12/25 07:52:35;;;;;;;21.67;12.52;;;281.80;2124.80;;;;;;5118759;28;20020;-66
2020/12/25 07:55:00;;;;;;;21.73;12.57;;;281.80;2124.80;;;;;;5118789;28;20035;-66
2020/12/25 07:57:27;;;;;;;20.88;13.27;;;281.80;2124.80;;;;;;5118360;28;20058;-65
2020/12/25 07:59:55;;;;;;;24.90;15.25;;;281.80;2150.40;;;;;;5118654;28;20419;-66
2020/12/25 08:02:22;;;;;;;25.92;13.98;;;281.90;2150.40;;;;;;5118244;28;20028;-66
2020/12/25 08:04:48;;;;;;;43.03;28.20;;;281.90;2176.00;;;;;;5118235;28;20023;-66
2020/12/25 08:07:14;;;;;;;41.22;27.00;;;281.90;2176.00;;;;;;5118797;28;20020;-66
2020/12/25 08:09:40;;;;;;;23.33;14.60;;;281.90;2176.00;;;;;;5118197;28;20382;-66
2020/12/25 08:12:10;;;;;;;24.08;15.43;;;281.80;2201.60;;;;;;5118337;28;20019;-66
2020/12/25 08:14:42;;;;;;;21.73;14.02;;;281.90;2176.00;;;;;;5118259;28;20337;-67
2020/12/25 08:17:09;;;;;;;22.25;14.15;;;281.80;2201.60;;;;;;5117848;28;20019;-66
2020/12/25 08:19:36;;;;;;;22.55;15.23;;;281.90;2176.00;;;;;;5117386;28;20028;-66
2020/12/25 08:22:05;;;;;;;28.85;19.30;;;281.90;2201.60;;;;;;5117790;28;20023;-66
2020/12/25 08:24:31;;;;;;;24.80;15.98;;;281.80;2201.60;;;;;;5106666;28;20028;-65
2020/12/25 08:27:01;;;;;;;23.10;15.52;;;281.80;2201.60;;;;;;5097511;28;20030;-66
2020/12/25 08:29:33;;;;;;;26.42;15.43;;;281.80;2227.20;;;;;;5096324;28;20100;-66
2020/12/25 08:32:09;;;;;;;21.85;14.93;;;281.80;2227.20;;;;;;5096924;28;20056;-65
2020/12/25 08:34:36;;;;;;;28.05;16.58;;;281.80;2227.20;;;;;;5097302;28;20081;-65
2020/12/25 08:37:13;;;;;;;31.27;17.85;;;256.90;2252.80;;;;;;5097596;28;20024;-67
2020/12/25 08:39:40;;;;;;;26.58;16.63;;;281.60;2278.40;;;;;;5096671;28;20024;-66
2020/12/25 08:42:09;;;;;;;35.38;19.67;;;281.60;2278.40;;;;;;5097221;28;20059;-65
2020/12/25 08:44:36;;;;;;;29.58;18.95;;;256.90;2252.80;;;;;;5097144;28;20417;-67
2020/12/25 08:47:09;;;;;;;31.13;20.40;;;281.70;2278.40;;;;;;5096591;28;20024;-65
2020/12/25 08:49:35;;;;;;;25.25;15.75;;;281.70;2278.40;;;;;;5097826;28;20341;-66
2020/12/25 08:52:01;;;;;;;29.38;16.63;;;281.70;2278.40;;;;;;5097084;28;20107;-67
2020/12/25 08:54:28;;;;;;;27.25;16.73;;;281.60;2278.40;;;;;;5097332;28;20089;-65
2020/12/25 08:56:55;;;;;;;31.02;17.40;;;281.90;2252.80;;;;;;5096982;28;20042;-67
2020/12/25 08:59:21;;;;;;;24.30;16.52;;;281.90;2252.80;;;;;;5096992;28;20028;-66
2020/12/25 09:01:51;;;;;;;26.23;16.90;;;281.90;2252.80;;;;;;5097110;28;20020;-65
2020/12/25 09:04:20;;;;;;;46.75;28.83;;;282.10;2252.80;;;;;;5096728;28;20107;-66
2020/12/25 09:06:50;;;;;;;39.55;24.95;;;281.90;2278.40;;;;;;5096893;28;20051;-66
2020/12/25 09:09:16;;;;;;;36.58;20.90;;;281.90;2252.80;;;;;;5097307;28;20035;-66
2020/12/25 09:11:42;;;;;;;30.60;20.70;;;281.90;2252.80;;;;;;5097503;28;20020;-66
2020/12/25 09:14:08;;;;;;;35.60;22.20;;;282.00;2252.80;;;;;;5096866;28;20111;-66
2020/12/25 09:16:33;;;;;;;103.82;85.55;;;281.90;2278.40;;;;;;5096927;28;20321;-66
2020/12/25 09:18:59;;;;;;;109.65;85.78;;;282.10;2278.40;;;;;;5096591;28;20422;-68
2020/12/25 09:21:27;;;;;;;160.68;108.50;;;282.00;2278.40;;;;;;5096687;28;20092;-65
2020/12/25 09:23:56;;;;;;;69.38;46.63;;;282.10;2278.40;;;;;;5096572;28;20024;-65
2020/12/25 09:26:23;;;;;;;55.83;38.78;;;282.20;2278.40;;;;;;5097400;28;20024;-67
2020/12/25 09:28:49;;;;;;;46.67;31.35;;;282.40;2278.40;;;;;;5097137;28;20508;-66
2020/12/25 09:31:15;;;;;;;32.90;21.63;;;307.20;2304.00;;;;;;5096867;28;20024;-67
2020/12/25 09:33:42;;;;;;;45.80;27.58;;;307.20;2304.00;;;;;;5096558;28;20027;-67
2020/12/25 09:36:09;;;;;;;41.25;26.60;;;307.20;2278.40;;;;;;5096600;28;20367;-67
2020/12/25 09:38:37;;;;;;;37.10;23.60;;;307.20;2278.40;;;;;;5096768;28;20028;-66
2020/12/25 09:41:03;;;;;;;35.17;23.42;;;282.40;2278.40;;;;;;5097233;28;20016;-66
2020/12/25 09:43:29;;;;;;;34.33;20.73;;;282.30;2252.80;;;;;;5096378;28;20031;-67
2020/12/25 09:45:56;;;;;;;34.95;21.00;;;282.50;2252.80;;;;;;5096421;28;20401;-67
2020/12/25 09:48:22;;;;;;;32.75;19.88;;;282.50;2252.80;;;;;;5106996;28;20034;-67
2020/12/25 09:50:48;;;;;;;35.72;24.20;;;282.50;2252.80;;;;;;5104523;28;20440;-67
2020/12/25 09:53:13;;;;;;;32.88;22.65;;;282.40;2252.80;;;;;;5106538;28;20019;-64
2020/12/25 09:55:40;;;;;;;36.95;24.02;;;282.10;2278.40;;;;;;5105310;28;20028;-65
2020/12/25 09:58:07;;;;;;;37.53;23.25;;;282.10;2278.40;;;;;;5108113;28;20030;-66
2020/12/25 10:00:34;;;;;;;35.83;22.08;;;282.20;2278.40;;;;;;5117153;28;20034;-66
2020/12/25 10:02:59;;;;;;;37.10;22.30;;;282.40;2278.40;;;;;;5117432;28;20374;-65
2020/12/25 10:05:25;;;;;;;43.35;21.63;;;282.50;2252.80;;;;;;5116813;28;20031;-65
2020/12/25 10:07:54;;;;;;;35.40;22.95;;;282.50;2278.40;;;;;;5117097;28;20056;-65
2020/12/25 10:10:21;;;;;;;38.15;24.98;;;282.30;2278.40;;;;;;5117900;28;20389;-64
2020/12/25 10:12:51;;;;;;;40.88;25.77;;;282.00;2278.40;;;;;;5112339;27;20059;-65
2020/12/25 10:15:17;;;;;;;35.33;22.52;;;281.80;2278.40;;;;;;5116355;28;20027;-64
2020/12/25 10:17:43;;;;;;;35.40;20.63;;;281.80;2278.40;;;;;;5118665;28;20310;-64
2020/12/25 10:20:09;;;;;;;31.38;21.27;;;282.10;2278.40;;;;;;5097069;28;20020;-68
2020/12/25 10:22:36;;;;;;;31.48;21.58;;;282.10;2278.40;;;;;;5098202;28;20020;-67
2020/12/25 10:25:03;;;;;;;32.92;21.95;;;282.10;2278.40;;;;;;5099271;28;20028;-65
2020/12/25 10:27:29;;;;;;;31.98;21.65;;;282.00;2278.40;;;;;;5099154;28;20437;-65
2020/12/25 10:29:54;;;;;;;34.88;23.98;;;281.90;2278.40;;;;;;5098965;28;20024;-67
2020/12/25 10:32:21;;;;;;;34.63;23.55;;;282.00;2278.40;;;;;;5117406;28;20464;-64
2020/12/25 10:34:46;;;;;;;37.45;24.08;;;281.90;2278.40;;;;;;5115533;28;20036;-65
2020/12/25 10:37:12;;;;;;;38.92;26.88;;;281.80;2278.40;;;;;;5110791;28;20026;-65
2020/12/25 10:39:38;;;;;;;48.42;27.83;;;281.80;2278.40;;;;;;5111456;28;20345;-67
2020/12/25 10:42:11;;;;;;;42.83;26.30;;;281.80;2278.40;;;;;;5103293;27;20659;-65
2020/12/25 10:44:37;;;;;;;50.65;29.88;;;281.70;2278.40;;;;;;5107209;28;20340;-66
2020/12/25 10:47:04;;;;;;;57.92;34.25;;;256.90;2252.80;;;;;;5104899;28;20074;-67
2020/12/25 10:49:30;;;;;;;56.88;34.85;;;256.90;2252.80;;;;;;5113943;27;20023;-66
2020/12/25 10:51:55;;;;;;;55.70;33.42;;;256.80;2252.80;;;;;;5105714;28;20028;-64
2020/12/25 10:54:25;;;;;;;50.13;31.00;;;256.70;2252.80;;;;;;5112612;28;20118;-66
2020/12/25 10:56:52;;;;;;;55.90;33.42;;;256.70;2252.80;;;;;;5118139;28;20028;-67
2020/12/25 10:59:18;;;;;;;55.53;31.85;;;256.70;2252.80;;;;;;5115813;28;20019;-66
2020/12/25 11:01:46;;;;;;;49.53;30.75;;;256.80;2252.80;;;;;;5116357;28;20070;-67
2020/12/25 11:04:13;;;;;;;45.80;29.50;;;256.90;2252.80;;;;;;5134611;27;20023;-67
2020/12/25 11:06:39;;;;;;;47.03;29.25;;;256.90;2252.80;;;;;;5135490;27;20030;-64
2020/12/25 11:09:06;;;;;;;48.53;29.38;;;256.90;2252.80;;;;;;5103025;28;20340;-66
2020/12/25 11:11:34;;;;;;;62.88;36.25;;;256.80;2252.80;;;;;;5097982;28;20439;-64
2020/12/25 11:14:01;;;;;;;66.40;38.08;;;281.60;2278.40;;;;;;5097390;28;20028;-66
2020/12/25 11:16:28;;;;;;;70.70;38.42;;;281.70;2278.40;;;;;;5096041;28;20684;-65
2020/12/25 11:18:58;;;;;;;63.55;37.03;;;281.90;2278.40;;;;;;5095615;28;20119;-66
2020/12/25 11:21:26;;;;;;;61.50;36.15;;;282.10;2278.40;;;;;;5094191;28;20020;-68
2020/12/25 11:23:53;;;;;;;51.20;32.22;;;282.20;2278.40;;;;;;5102814;28;20026;-67
2020/12/25 11:26:29;;;;;;;45.13;28.75;;;282.40;2278.40;;;;;;5117171;28;20031;-66
2020/12/25 11:28:58;;;;;;;37.33;25.08;;;282.40;2278.40;;;;;;5116779;28;20069;-67
2020/12/25 11:31:25;;;;;;;35.58;24.83;;;282.30;2278.40;;;;;;5117008;28;20036;-66
2020/12/25 11:33:52;;;;;;;33.33;22.52;;;282.10;2278.40;;;;;;5114760;28;20495;-68
2020/12/25 11:36:22;;;;;;;35.95;23.20;;;282.20;2278.40;;;;;;5116544;28;20042;-66
2020/12/25 11:38:49;;;;;;;34.42;22.77;;;282.20;2278.40;;;;;;5116134;28;20024;-66
2020/12/25 11:41:17;;;;;;;36.85;22.83;;;282.50;2278.40;;;;;;5117481;28;20031;-66
2020/12/25 11:43:44;;;;;;;32.55;22.30;;;307.20;2304.00;;;;;;5117326;28;20024;-68
2020/12/25 11:46:10;;;;;;;37.70;23.40;;;307.40;2304.00;;;;;;5117182;28;20402;-66
2020/12/25 11:48:38;;;;;;;35.25;23.40;;;307.70;2304.00;;;;;;5116900;28;20027;-68
2020/12/25 11:51:05;;;;;;;34.88;23.63;;;307.70;2304.00;;;;;;5115490;28;20028;-66
2020/12/25 11:53:31;;;;;;;36.33;23.83;;;307.60;2304.00;;;;;;5115778;28;20024;-66
2020/12/25 11:55:57;;;;;;;34.58;24.98;;;307.30;2304.00;;;;;;5116258;28;20039;-66
2020/12/25 11:58:23;;;;;;;35.60;24.23;;;307.20;2304.00;;;;;;5118625;28;20020;-66
2020/12/25 12:00:49;;;;;;;53.80;34.33;;;282.50;2278.40;;;;;;5115582;28;20023;-68
2020/12/25 12:03:15;;;;;;;39.90;27.80;;;282.40;2278.40;;;;;;5117512;28;20027;-68
2020/12/25 12:05:42;;;;;;;42.25;28.55;;;282.40;2278.40;;;;;;5118145;28;20054;-65
2020/12/25 12:08:09;;;;;;;43.78;29.33;;;282.50;2278.40;;;;;;5104966;28;20027;-67